Etusivu
METAR-TAF:

METAR-TAF

Lentoasemat :

Svolværin lentoasema

Svolvær, Norja

Leveyspiiri: 68-15N, Pituuspiiri: 014-40E, korkeus merenpinnasta: 0 m

Tämänhetkinen sää

Tämä raportti tehtiin 5 tuntia ja 19 minuuttia sitten, kello 21.20 UTC
Tuuli 8 kn pohjoisesta/koillisesta
Lämpötila 2°C
Kosteus 69%
Ilmanpaine 1015 hPa
Näkyvyys 10 km tai enemmän
ei pilviä alle 1500 m:ssä eikä cumulonimbus-pilviä

METAR: ENSH 102120Z 02008KT CAVOK 02/M03 Q1015 RMK WIND 150FT 35005KT

Aika: 03:39 (02:39 UTC)

Sääennuste

Tämä raportti tehtiin 9 tuntia ja 39 minuuttia sitten, kello 17.00 UTC
Ennuste voimassa 10. päivästä klo 18 UTC - 10. päivään klo 22 UTC
Tuuli 12 kn pohjoisesta
Näkyvyys 10 km tai enemmän
Muutamia pilviä 3000 ft:n korkeudessa

TAF: ENSH 101700Z 1018/1022 01012KT 9999 FEW030

Säähavainnot ja -ennusteet yli 4000 lentoasemalta (METAR- ja TAF-raportit).

Käytössä olevat sääasemat on merkitty karttaan keltaisilla ja punaisilla pisteillä.

Aseta hiiri pisteen päälle nähdäksesi sääaseman nimen.

Klikkaa sitten nähdäksesi säähavainnot ja -ennusteet.

Kartan vaihtaminen: klikkaa mustalla rastilla varustettuja vihreitä pisteitä, niin voit zoomata sisään; viivalla varustettua vihreää pistettä, niin voit zoomata ulos tai vihreitä nuolia, niin pääset viereisille kartoille.


METAR-TAF: